Aérodrome :
LOGIN :

S'inscrire | Disclaimer

   EN    FR    IT 

 










Légende :    VFR   VFR Marginal   IFR   IFR Intensif   IFR Très Intensif
Visi : 
Plafond : 
>= 8 km
>= 3000ft
5 à 8 km
1000 à 3000 ft
1500m à 5 km
500 à 1000 ft
800 à 1500m
200 à 500 ft
< 800m
< 200 ft
Symboles :   Orages  Brouillard  Fortes neiges  Fortes précipitations  Vent > 20 kt
SIGMETs :   Divers  Orages  Givrage  Turbulence  Onde Orograph.  Cendres Volcan.






- Altitude de l'aérodrome : 184 ft
- Code IATA : BRU


EBBR - Bruxelles

DERNIER METAR :
  • 220020Z 22018KT 9999 FEW025 07/03 Q1023 NOSIG

METARs EXPIRÉS :
  • 212250Z 22015KT 9999 BKN030 08/02 Q1024 NOSIG

TAF TAF EBBR
Valide du 21 à 18h jusqu'au 23 à 00h UTC


211710Z 2118/2224 22011KT 9999 BKN020
BECMG 2118/2121 23015G25KT
BECMG 2202/2204 SCT008 BKN012
PROB30
TEMPO 2203/2216 4000 -DZRA BKN007
BECMG 2220/2222 23009KT
TEMPO 2221/2224 4000 RA RADZ BKN007



MET'MAP, la Météo Aéronautique d'un coup d'oeil ! - Copyright ORBIFLY Décembre 2007 - Disclaimer

ORBIFLY MET'MAP TEAM :

Programmation & Développement : Alexandra Zaïnal
Sur une idée originale de : Baudouin d'Aumeries
Assistance à la programmation : Marc-Olivier Méhu
Soutien technique & logistique : Manuel Goepfert

Contact : metmap@orbifly.com




SOURCES & CREDITS :

   NOAA